createdAt,value
2022-08-02T00:00:35.170Z,4.47
2022-08-02T00:03:02.080Z,4.57
2022-08-02T00:05:28.946Z,6.35
2022-08-02T00:07:55.751Z,4.95
2022-08-02T00:10:22.643Z,4.77
2022-08-02T00:12:49.447Z,5.70
2022-08-02T00:15:16.540Z,6.32
2022-08-02T00:17:46.438Z,5.03
2022-08-02T00:20:15.844Z,4.43
2022-08-02T00:22:42.627Z,5.27
2022-08-02T00:25:09.695Z,5.22
2022-08-02T00:27:36.500Z,5.03
2022-08-02T00:30:04.089Z,4.20
2022-08-02T00:32:30.970Z,4.82
2022-08-02T00:34:57.727Z,4.57
2022-08-02T00:37:24.566Z,6.55
2022-08-02T00:39:51.316Z,5.40
2022-08-02T00:42:18.087Z,5.55
2022-08-02T00:44:44.979Z,7.43
2022-08-02T00:47:13.187Z,6.40
2022-08-02T00:49:46.848Z,4.55
2022-08-02T00:52:13.991Z,4.90
2022-08-02T00:54:41.106Z,5.07
2022-08-02T00:57:07.895Z,4.50
2022-08-02T00:59:34.729Z,5.30
2022-08-02T01:02:01.686Z,4.43
2022-08-02T01:04:30.033Z,4.38
2022-08-02T01:07:12.903Z,5.45
2022-08-02T01:09:45.304Z,4.15
2022-08-02T01:12:13.936Z,5.47
2022-08-02T01:14:43.474Z,5.30
2022-08-02T01:17:40.842Z,6.10
2022-08-02T01:20:30.756Z,5.55
2022-08-02T01:23:09.226Z,5.22
2022-08-02T01:26:07.991Z,5.27
2022-08-02T01:29:03.747Z,6.55
2022-08-02T01:31:44.790Z,7.28
2022-08-02T01:34:26.372Z,5.30
2022-08-02T01:37:15.467Z,4.57
2022-08-02T01:39:44.435Z,4.77
2022-08-02T01:42:12.483Z,4.97
2022-08-02T01:44:42.364Z,5.47
2022-08-02T01:47:35.864Z,5.55
2022-08-02T01:50:05.806Z,5.78
2022-08-02T01:52:37.540Z,6.53
2022-08-02T01:55:09.852Z,5.53
2022-08-02T01:57:51.040Z,9.55
2022-08-02T02:00:19.598Z,7.20
2022-08-02T02:02:49.230Z,8.45
2022-08-02T02:05:20.621Z,6.40
2022-08-02T02:07:52.274Z,6.13
2022-08-02T02:10:24.314Z,5.20
2022-08-02T02:12:52.482Z,6.13
2022-08-02T02:15:20.680Z,7.00
2022-08-02T02:18:12.458Z,7.63
2022-08-02T02:20:38.387Z,9.07
2022-08-02T02:23:05.246Z,6.85
2022-08-02T02:25:36.389Z,6.20
2022-08-02T02:28:14.376Z,7.60
2022-08-02T02:30:45.631Z,6.23
2022-08-02T02:33:16.599Z,7.65
2022-08-02T02:35:44.915Z,5.50
2022-08-02T02:38:13.928Z,6.30
2022-08-02T02:40:42.064Z,5.40
2022-08-02T02:43:11.038Z,5.90
2022-08-02T02:45:39.487Z,5.22
2022-08-02T02:48:08.515Z,4.82
2022-08-02T02:50:36.920Z,5.97
2022-08-02T02:53:04.851Z,5.53
2022-08-02T02:55:32.301Z,5.50
2022-08-02T02:57:59.699Z,9.00
2022-08-02T03:00:45.360Z,5.32
2022-08-02T03:03:13.688Z,4.82
2022-08-02T03:05:40.551Z,5.22
2022-08-02T03:08:07.543Z,5.10
2022-08-02T03:10:35.011Z,6.50
2022-08-02T03:13:02.479Z,6.18
2022-08-02T03:15:31.176Z,7.47
2022-08-02T03:17:57.892Z,5.38
2022-08-02T03:20:24.755Z,5.00
2022-08-02T03:22:51.619Z,6.30
2022-08-02T03:25:19.235Z,5.25
2022-08-02T03:27:46.523Z,6.07
2022-08-02T03:30:14.217Z,6.93
2022-08-02T03:32:47.077Z,6.97
2022-08-02T03:35:20.026Z,9.63
2022-08-02T03:37:52.063Z,7.30
2022-08-02T03:40:19.244Z,7.00
2022-08-02T03:42:46.711Z,6.75
2022-08-02T03:45:13.882Z,6.40
2022-08-02T03:47:42.463Z,8.57
2022-08-02T03:50:13.430Z,6.78
2022-08-02T03:52:43.050Z,7.15
2022-08-02T03:55:11.750Z,6.38
2022-08-02T03:57:40.080Z,5.23
2022-08-02T04:00:09.471Z,7.05
2022-08-02T04:02:39.730Z,7.70
2022-08-02T04:05:06.840Z,6.38
2022-08-02T04:08:33.740Z,7.82
2022-08-02T04:10:20.420Z,6.30
2022-08-02T04:12:47.331Z,8.10
2022-08-02T04:15:15.504Z,6.85
2022-08-02T04:17:49.949Z,7.05
2022-08-02T04:20:22.951Z,5.93
2022-08-02T04:23:09.866Z,6.63
2022-08-02T04:25:40.503Z,7.30
2022-08-02T04:28:16.967Z,7.75
2022-08-02T04:30:46.692Z,8.43
2022-08-02T04:33:14.382Z,7.63
2022-08-02T04:35:41.370Z,7.93
2022-08-02T04:38:10.459Z,5.55
2022-08-02T04:40:38.530Z,6.75
2022-08-02T04:43:05.587Z,11.32
2022-08-02T04:45:33.208Z,6.50
2022-08-02T04:48:07.393Z,9.57
2022-08-02T04:50:35.050Z,7.38
2022-08-02T04:53:02.155Z,10.25
2022-08-02T04:55:29.954Z,6.57
2022-08-02T04:57:58.354Z,7.22
2022-08-02T05:00:27.243Z,6.17
2022-08-02T05:02:55.836Z,6.00
2022-08-02T05:05:22.846Z,6.40
2022-08-02T05:07:49.643Z,5.68
2022-08-02T05:10:16.510Z,7.47
2022-08-02T05:12:43.389Z,7.27
2022-08-02T05:15:12.804Z,8.63
2022-08-02T05:17:47.787Z,6.40
2022-08-02T05:20:17.399Z,8.50
2022-08-02T05:22:44.722Z,6.03
2022-08-02T05:25:11.559Z,7.30
2022-08-02T05:27:38.512Z,5.68
2022-08-02T05:30:06.333Z,6.35
2022-08-02T05:32:33.164Z,8.57
2022-08-02T05:35:03.391Z,8.23
2022-08-02T05:37:32.247Z,14.23
2022-08-02T05:39:59.304Z,10.90
2022-08-02T05:42:31.303Z,13.27
2022-08-02T05:44:58.416Z,12.80
2022-08-02T05:47:25.914Z,15.52
2022-08-02T05:49:53.648Z,8.70
2022-08-02T05:52:24.442Z,7.55
2022-08-02T05:55:13.257Z,7.43
2022-08-02T05:57:55.104Z,8.85
2022-08-02T06:00:22.394Z,5.43
2022-08-02T06:02:49.178Z,6.43
2022-08-02T06:05:19.977Z,8.02
2022-08-02T06:07:49.659Z,6.47
2022-08-02T06:10:20.297Z,9.80
2022-08-02T06:12:50.948Z,7.07
2022-08-02T06:15:19.655Z,6.80
2022-08-02T06:17:47.887Z,7.72
2022-08-02T06:20:16.024Z,9.65
2022-08-02T06:22:44.807Z,8.25
2022-08-02T06:25:50.681Z,7.90
2022-08-02T06:28:01.842Z,8.93
2022-08-02T06:30:29.618Z,7.63
2022-08-02T06:32:56.723Z,8.18
2022-08-02T06:35:29.506Z,9.20
2022-08-02T06:38:03.447Z,11.38
2022-08-02T06:40:36.010Z,12.10
2022-08-02T06:43:21.861Z,11.25
2022-08-02T06:45:48.676Z,11.73
2022-08-02T06:48:15.759Z,10.00
2022-08-02T06:50:44.251Z,17.98
2022-08-02T06:53:12.042Z,9.70
2022-08-02T06:55:44.162Z,7.57
2022-08-02T06:58:12.678Z,10.70
2022-08-02T07:00:40.008Z,12.73
2022-08-02T07:03:06.907Z,9.30
2022-08-02T07:05:35.179Z,9.70
2022-08-02T07:08:03.000Z,10.75
2022-08-02T07:10:30.228Z,8.75
2022-08-02T07:12:59.729Z,8.10
2022-08-02T07:15:27.217Z,7.53
2022-08-02T07:17:54.003Z,9.60
2022-08-02T07:20:20.943Z,7.80
2022-08-02T07:22:47.754Z,7.45
2022-08-02T07:25:14.734Z,6.93
2022-08-02T07:27:41.920Z,6.65
2022-08-02T07:30:09.534Z,6.77
2022-08-02T07:32:36.430Z,6.93
2022-08-02T07:35:07.046Z,6.32
2022-08-02T07:37:55.500Z,6.18
2022-08-02T07:40:25.594Z,5.25
2022-08-02T07:42:59.378Z,5.97
2022-08-02T07:45:30.772Z,6.95
2022-08-02T07:47:57.506Z,7.15
2022-08-02T07:50:24.502Z,7.82
2022-08-02T07:52:57.626Z,4.80
2022-08-02T07:55:37.921Z,6.63
2022-08-02T07:58:12.473Z,7.47
2022-08-02T08:00:42.004Z,5.63
2022-08-02T08:03:08.993Z,7.20
2022-08-02T08:05:36.214Z,5.50
2022-08-02T08:08:03.187Z,6.90
2022-08-02T08:10:29.905Z,5.38
2022-08-02T08:12:56.682Z,8.57
2022-08-02T08:15:23.669Z,6.53
2022-08-02T08:17:50.455Z,5.53
2022-08-02T08:20:17.507Z,5.00
2022-08-02T08:22:44.440Z,4.85
2022-08-02T08:25:11.281Z,4.88
2022-08-02T08:27:38.071Z,5.70
2022-08-02T08:30:05.250Z,5.50
2022-08-02T08:32:32.051Z,6.23
2022-08-02T08:34:59.444Z,6.50
2022-08-02T08:37:26.276Z,5.43
2022-08-02T08:39:56.324Z,6.82
2022-08-02T08:42:29.146Z,6.45
2022-08-02T08:44:57.699Z,6.33
2022-08-02T08:47:34.220Z,5.65
2022-08-02T08:50:05.577Z,6.43
2022-08-02T08:52:37.030Z,5.78
2022-08-02T08:55:05.458Z,5.72
2022-08-02T08:57:35.088Z,5.53
2022-08-02T09:00:02.016Z,5.95
2022-08-02T09:02:28.978Z,5.80
2022-08-02T09:04:56.561Z,5.60
2022-08-02T09:07:23.753Z,7.18
2022-08-02T09:09:50.527Z,7.67
2022-08-02T09:12:19.709Z,7.43
2022-08-02T09:14:50.212Z,7.95
2022-08-02T09:17:18.155Z,5.50
2022-08-02T09:19:46.222Z,5.40
2022-08-02T09:22:15.421Z,5.67
2022-08-02T09:24:46.720Z,7.43
2022-08-02T09:27:18.669Z,6.30
2022-08-02T09:30:13.414Z,6.65
2022-08-02T09:32:49.916Z,7.45
2022-08-02T09:36:06.476Z,5.60
2022-08-02T09:38:22.426Z,5.82
2022-08-02T09:40:52.834Z,6.47
2022-08-02T09:43:20.812Z,5.90
2022-08-02T09:45:47.590Z,5.53
2022-08-02T09:48:14.431Z,6.97
2022-08-02T09:50:42.791Z,6.15
2022-08-02T09:53:14.087Z,6.07
2022-08-02T09:55:42.154Z,6.40
2022-08-02T09:58:21.423Z,5.63
2022-08-02T10:00:56.357Z,5.37
2022-08-02T10:03:23.294Z,5.63
2022-08-02T10:06:02.201Z,5.82
2022-08-02T10:08:33.035Z,6.70
2022-08-02T10:11:01.969Z,5.93
2022-08-02T10:13:34.659Z,5.37
2022-08-02T10:16:06.205Z,5.65
2022-08-02T10:18:39.413Z,5.40
2022-08-02T10:21:17.997Z,6.15
2022-08-02T10:23:46.563Z,4.72
2022-08-02T10:26:16.761Z,4.17
2022-08-02T10:28:46.701Z,5.40
2022-08-02T10:31:16.584Z,5.25
2022-08-02T10:33:49.867Z,4.55
2022-08-02T10:36:18.231Z,7.13
2022-08-02T10:38:45.807Z,4.20
2022-08-02T10:41:12.932Z,3.83
2022-08-02T10:43:42.580Z,4.63
2022-08-02T10:46:33.450Z,3.50
2022-08-02T10:49:23.669Z,3.70
2022-08-02T10:52:00.322Z,5.27
2022-08-02T10:54:29.302Z,5.63
2022-08-02T10:56:57.371Z,4.97
2022-08-02T10:59:31.470Z,4.65
2022-08-02T11:02:02.011Z,5.38
2022-08-02T11:04:41.566Z,4.47
2022-08-02T11:07:19.221Z,5.18
2022-08-02T11:09:47.762Z,4.93
2022-08-02T11:12:17.391Z,5.03
2022-08-02T11:14:57.856Z,4.00
2022-08-02T11:17:25.219Z,5.37
2022-08-02T11:20:10.885Z,4.22
2022-08-02T11:22:39.120Z,4.70
2022-08-02T11:25:24.163Z,4.38
2022-08-02T11:27:56.186Z,4.25
2022-08-02T11:30:26.709Z,4.20
2022-08-02T11:32:58.272Z,5.82
2022-08-02T11:35:37.074Z,4.10
2022-08-02T11:38:17.937Z,3.75
2022-08-02T11:40:45.926Z,8.18
2022-08-02T11:43:22.812Z,4.57
2022-08-02T11:45:52.462Z,6.85
2022-08-02T11:48:32.999Z,5.95
2022-08-02T11:51:18.858Z,5.07
2022-08-02T11:53:52.695Z,4.53
2022-08-02T11:56:32.580Z,3.73
2022-08-02T11:59:06.391Z,4.70
2022-08-02T12:01:36.821Z,4.47
2022-08-02T12:04:15.598Z,4.68
2022-08-02T12:06:43.013Z,3.72
2022-08-02T12:09:19.014Z,3.20
2022-08-02T12:11:51.413Z,6.90
2022-08-02T12:14:18.999Z,4.70
2022-08-02T12:17:05.087Z,5.20
2022-08-02T12:19:32.010Z,3.72
2022-08-02T12:22:10.611Z,4.70
2022-08-02T12:24:39.011Z,4.10
2022-08-02T12:27:06.536Z,4.55
2022-08-02T12:29:58.395Z,4.20
2022-08-02T12:32:25.760Z,5.47
2022-08-02T12:35:09.538Z,4.00
2022-08-02T12:37:38.332Z,3.70
2022-08-02T12:40:29.305Z,3.63
2022-08-02T12:43:06.916Z,4.30
2022-08-02T12:45:49.239Z,4.05
2022-08-02T12:48:36.705Z,4.87
2022-08-02T12:51:56.417Z,4.78
2022-08-02T12:54:26.889Z,4.40
2022-08-02T12:57:11.580Z,3.97
2022-08-02T12:59:40.402Z,4.13
2022-08-02T13:02:11.478Z,4.77
2022-08-02T13:04:39.073Z,5.30
2022-08-02T13:07:06.218Z,3.75
2022-08-02T13:09:40.971Z,4.00
2022-08-02T13:12:08.788Z,4.95
2022-08-02T13:14:40.386Z,3.40
2022-08-02T13:17:10.411Z,5.28
2022-08-02T13:19:38.598Z,4.65
2022-08-02T13:22:06.394Z,3.92
2022-08-02T13:24:40.852Z,3.53
2022-08-02T13:27:22.668Z,4.47
2022-08-02T13:29:50.815Z,3.30
2022-08-02T13:32:18.243Z,3.65
2022-08-02T13:34:45.183Z,3.92
2022-08-02T13:37:12.247Z,5.20
2022-08-02T13:39:39.265Z,3.40
2022-08-02T13:42:07.165Z,3.80
2022-08-02T13:44:35.323Z,3.88
2022-08-02T13:47:03.118Z,6.85
2022-08-02T13:49:50.190Z,4.05
2022-08-02T13:52:17.327Z,3.97
2022-08-02T13:54:44.312Z,4.75
2022-08-02T13:57:11.219Z,4.25
2022-08-02T13:59:56.478Z,4.32
2022-08-02T14:02:25.947Z,4.70
2022-08-02T14:04:52.759Z,4.43
2022-08-02T14:07:19.722Z,4.03
2022-08-02T14:09:46.935Z,3.78
2022-08-02T14:12:14.783Z,3.97
2022-08-02T14:14:42.055Z,4.13
2022-08-02T14:17:08.739Z,4.57
2022-08-02T14:19:35.651Z,4.05
2022-08-02T14:22:10.993Z,4.22
2022-08-02T14:24:41.567Z,4.00
2022-08-02T14:27:08.644Z,3.95
2022-08-02T14:29:35.750Z,4.70
2022-08-02T14:32:02.949Z,3.92
2022-08-02T14:34:29.944Z,3.90
2022-08-02T14:36:56.922Z,4.15
2022-08-02T14:39:23.761Z,5.55
2022-08-02T14:41:59.701Z,4.97
2022-08-02T14:44:30.249Z,4.05
2022-08-02T14:46:57.255Z,3.45
2022-08-02T14:49:26.258Z,3.85
2022-08-02T14:51:54.584Z,4.18
2022-08-02T14:54:27.729Z,5.60
2022-08-02T14:56:57.537Z,4.88
2022-08-02T14:59:24.385Z,4.07
2022-08-02T15:01:51.256Z,5.28
2022-08-02T15:04:18.326Z,3.72
2022-08-02T15:06:45.183Z,4.57
2022-08-02T15:09:13.610Z,4.03
2022-08-02T15:11:47.509Z,4.10
2022-08-02T15:14:22.050Z,3.78
2022-08-02T15:16:58.373Z,5.07
2022-08-02T15:19:51.256Z,4.07
2022-08-02T15:22:19.073Z,3.92
2022-08-02T15:24:47.748Z,3.40
2022-08-02T15:27:15.386Z,3.60
2022-08-02T15:29:43.766Z,4.57
2022-08-02T15:32:11.654Z,4.97
2022-08-02T15:34:39.167Z,6.63
2022-08-02T15:37:06.070Z,3.53
2022-08-02T15:39:32.899Z,3.83
2022-08-02T15:41:59.726Z,4.32
2022-08-02T15:44:26.568Z,4.33
2022-08-02T15:46:54.392Z,3.95
2022-08-02T15:49:25.071Z,4.20
2022-08-02T15:51:52.965Z,4.22
2022-08-02T15:54:20.645Z,3.70
2022-08-02T15:56:50.300Z,3.47
2022-08-02T15:59:17.633Z,4.38
2022-08-02T16:01:47.771Z,4.45
2022-08-02T16:04:16.287Z,4.03
2022-08-02T16:06:44.118Z,3.67
2022-08-02T16:09:11.326Z,3.90
2022-08-02T16:11:38.810Z,3.42
2022-08-02T16:14:06.510Z,3.90
2022-08-02T16:16:35.860Z,3.85
2022-08-02T16:19:47.286Z,3.83
2022-08-02T16:21:54.343Z,4.60
2022-08-02T16:24:22.078Z,4.85
2022-08-02T16:26:49.445Z,4.38
2022-08-02T16:29:19.300Z,4.38
2022-08-02T16:31:50.377Z,3.75
2022-08-02T16:34:18.535Z,3.90
2022-08-02T16:36:46.184Z,3.67
2022-08-02T16:39:13.721Z,3.75
2022-08-02T16:41:52.074Z,3.30
2022-08-02T16:44:27.548Z,3.75
2022-08-02T16:47:01.194Z,3.20
2022-08-02T16:50:05.182Z,4.40
2022-08-02T16:52:20.051Z,3.55
2022-08-02T16:54:49.897Z,3.60
2022-08-02T16:57:19.602Z,4.40
2022-08-02T16:59:58.059Z,4.30
2022-08-02T17:02:28.631Z,3.55
2022-08-02T17:04:55.998Z,3.38
2022-08-02T17:08:08.714Z,4.93
2022-08-02T17:10:12.224Z,4.15
2022-08-02T17:12:39.782Z,3.53
2022-08-02T17:16:07.941Z,3.65
2022-08-02T17:17:56.001Z,4.45
2022-08-02T17:20:24.529Z,3.70
2022-08-02T17:22:52.799Z,3.90
2022-08-02T17:25:22.732Z,3.37
2022-08-02T17:27:55.657Z,3.10
2022-08-02T17:30:26.738Z,3.30
2022-08-02T17:32:57.465Z,4.45
2022-08-02T17:35:25.574Z,4.68
2022-08-02T17:38:10.929Z,3.40
2022-08-02T17:40:45.313Z,3.65
2022-08-02T17:43:14.504Z,4.50
2022-08-02T17:46:00.036Z,3.58
2022-08-02T17:48:49.511Z,4.55
2022-08-02T17:51:32.828Z,3.47
2022-08-02T17:54:04.663Z,3.92
2022-08-02T17:56:33.814Z,4.10
2022-08-02T17:59:30.654Z,5.10
2022-08-02T18:02:09.367Z,4.07
2022-08-02T18:04:39.736Z,4.63
2022-08-02T18:07:09.372Z,4.00
2022-08-02T18:09:41.496Z,3.92
2022-08-02T18:12:14.463Z,4.25
2022-08-02T18:14:46.137Z,4.63
2022-08-02T18:17:16.747Z,3.97
2022-08-02T18:22:30.572Z,7.05
2022-08-02T18:24:57.490Z,4.78
2022-08-02T18:27:24.437Z,4.13
2022-08-02T18:30:00.181Z,5.37
2022-08-02T18:33:01.148Z,7.10
2022-08-02T18:35:21.416Z,6.00
2022-08-02T18:37:56.954Z,7.22
2022-08-02T18:40:27.928Z,9.77
2022-08-02T18:42:54.924Z,8.73
2022-08-02T18:45:21.734Z,7.35
2022-08-02T18:47:50.735Z,4.60
2022-08-02T18:50:18.882Z,6.22
2022-08-02T18:52:47.824Z,6.05
2022-08-02T18:55:17.620Z,5.30
2022-08-02T18:58:17.911Z,7.32
2022-08-02T19:00:47.465Z,7.75
2022-08-02T19:03:18.967Z,6.25
2022-08-02T19:05:53.567Z,4.72
2022-08-02T19:11:08.931Z,10.48
2022-08-02T19:13:40.757Z,7.95
2022-08-02T19:16:09.404Z,7.45
2022-08-02T19:18:37.650Z,5.30
2022-08-02T19:21:05.217Z,6.07
2022-08-02T19:23:32.756Z,5.25
2022-08-02T19:26:00.050Z,10.13
2022-08-02T19:28:27.447Z,8.68
2022-08-02T19:30:55.350Z,6.55
2022-08-02T19:33:25.021Z,7.33
2022-08-02T19:36:09.783Z,9.75
2022-08-02T19:38:43.560Z,8.13
2022-08-02T19:41:13.190Z,7.97
2022-08-02T19:44:26.417Z,6.97
2022-08-02T19:46:27.103Z,7.17
2022-08-02T19:48:54.009Z,6.32
2022-08-02T19:51:49.779Z,8.82
2022-08-02T19:54:10.958Z,5.28
2022-08-02T19:56:40.390Z,5.63
2022-08-02T19:59:13.048Z,6.27
2022-08-02T20:04:28.190Z,7.18
2022-08-02T20:06:55.187Z,4.65
2022-08-02T20:09:33.136Z,4.82
2022-08-02T20:12:00.468Z,4.70
2022-08-02T20:14:27.986Z,4.95
2022-08-02T20:16:56.108Z,4.70
2022-08-02T20:19:23.871Z,6.65
2022-08-02T20:21:56.848Z,5.93
2022-08-02T20:24:27.439Z,6.60
2022-08-02T20:26:55.558Z,4.90
2022-08-02T20:29:44.975Z,5.03
2022-08-02T20:32:21.324Z,5.28
2022-08-02T20:34:50.121Z,6.03
2022-08-02T20:38:00.010Z,4.93
2022-08-02T20:40:05.754Z,11.35
2022-08-02T20:42:34.122Z,7.60
2022-08-02T20:45:01.611Z,5.13
2022-08-02T20:47:40.046Z,5.85
2022-08-02T20:50:30.621Z,6.77
2022-08-02T20:53:03.178Z,8.27
2022-08-02T20:55:32.176Z,6.50
2022-08-02T20:58:01.882Z,5.53
2022-08-02T21:00:30.227Z,5.85
2022-08-02T21:02:58.320Z,7.20
2022-08-02T21:05:54.740Z,5.82
2022-08-02T21:08:14.751Z,5.43
2022-08-02T21:10:43.948Z,6.63
2022-08-02T21:13:23.000Z,4.97
2022-08-02T21:15:51.546Z,6.20
2022-08-02T21:18:23.733Z,6.93
2022-08-02T21:21:01.316Z,5.93
2022-08-02T21:23:28.740Z,7.82
2022-08-02T21:25:57.986Z,6.38
2022-08-02T21:28:43.742Z,6.87
2022-08-02T21:31:15.602Z,6.45
2022-08-02T21:33:56.645Z,8.32
2022-08-02T21:36:33.844Z,6.10
2022-08-02T21:39:05.019Z,6.53
2022-08-02T21:41:38.972Z,7.50
2022-08-02T21:44:12.814Z,6.70
2022-08-02T21:46:40.818Z,7.88
2022-08-02T21:49:11.424Z,5.72
2022-08-02T21:51:39.531Z,5.88
2022-08-02T21:56:56.731Z,6.47
2022-08-02T21:59:26.696Z,5.60
2022-08-02T22:01:56.675Z,4.75
2022-08-02T22:04:27.104Z,5.03
2022-08-02T22:06:55.458Z,4.90
2022-08-02T22:09:42.193Z,6.30
2022-08-02T22:12:12.701Z,5.97
2022-08-02T22:14:49.464Z,5.38
2022-08-02T22:17:52.383Z,4.65
2022-08-02T22:20:09.750Z,7.50
2022-08-02T22:22:39.815Z,5.78
2022-08-02T22:25:10.276Z,4.90
2022-08-02T22:28:35.895Z,6.88
2022-08-02T22:30:42.057Z,4.47
2022-08-02T22:33:33.294Z,4.53
2022-08-02T22:36:01.228Z,5.50
2022-08-02T22:38:29.114Z,5.10
2022-08-02T22:40:56.114Z,6.22
2022-08-02T22:43:23.506Z,5.32
2022-08-02T22:45:51.211Z,4.93
2022-08-02T22:48:18.010Z,6.03
2022-08-02T22:50:44.971Z,4.10
2022-08-02T22:53:12.286Z,4.70
2022-08-02T22:55:41.563Z,5.95
2022-08-02T22:58:09.483Z,5.40
2022-08-02T22:58:54.159Z,5.07
2022-08-02T22:58:59.384Z,8.53
2022-08-02T22:59:00.753Z,6.15
2022-08-02T22:59:03.801Z,6.30
2022-08-02T23:00:36.300Z,5.03
2022-08-02T23:03:06.640Z,5.03
2022-08-02T23:05:34.214Z,5.40
2022-08-02T23:08:01.267Z,4.78
2022-08-02T23:10:28.377Z,4.10
2022-08-02T23:12:59.036Z,6.60
2022-08-02T23:15:26.806Z,5.18
2022-08-02T23:18:12.355Z,4.70
2022-08-02T23:20:39.126Z,4.80
2022-08-02T23:23:11.577Z,5.50
2022-08-02T23:25:38.828Z,5.78
2022-08-02T23:28:05.620Z,5.93
2022-08-02T23:30:32.418Z,5.32
2022-08-02T23:32:59.206Z,5.25
2022-08-02T23:35:25.960Z,5.03
2022-08-02T23:37:59.594Z,4.68
2022-08-02T23:40:40.611Z,7.22
2022-08-02T23:43:14.974Z,6.72
2022-08-02T23:45:46.256Z,5.85
2022-08-02T23:48:13.551Z,6.70
2022-08-02T23:50:40.410Z,4.05
2022-08-02T23:53:07.278Z,5.13
2022-08-02T23:55:34.059Z,4.82
2022-08-02T23:58:00.888Z,7.65
